Time;durP1;ratioP1;P1;durP2;ratioP2;P2;SDS_P1;SDS_P2;PMS_P1;PMS_P2;Temp;Humidity;BMP_temperature;BMP_pressure;BME280_temperature;BME280_humidity;BME280_pressure;Samples;Min_cycle;Max_cycle;Signal;HPM_P1;HPM_P2
2020/12/27 00:00:38;;;;;;;6.35;5.28;;;;;;;1.58;71.26;100258.35;1737582;82;21171;-65
2020/12/27 00:03:06;;;;;;;5.83;4.20;;;;;;;1.53;71.27;100258.09;1739264;82;22207;-65
2020/12/27 00:05:33;;;;;;;4.85;4.22;;;;;;;1.50;71.60;100255.77;1737929;82;22658;-65
2020/12/27 00:08:01;;;;;;;6.20;4.75;;;;;;;1.48;71.72;100254.31;1737751;82;21064;-66
2020/12/27 00:10:29;;;;;;;8.18;5.33;;;;;;;1.45;71.87;100250.17;1737859;81;21136;-66
2020/12/27 00:12:58;;;;;;;4.80;4.30;;;;;;;1.43;71.93;100246.90;1737564;82;21171;-67
2020/12/27 00:15:26;;;;;;;6.80;5.58;;;;;;;1.43;72.04;100253.52;1708405;84;21125;-68
2020/12/27 00:17:53;;;;;;;5.30;4.80;;;;;;;1.42;72.09;100252.37;1726155;82;21380;-68
2020/12/27 00:20:21;;;;;;;11.35;5.17;;;;;;;1.40;72.25;100247.73;1741151;81;21226;-67
2020/12/27 00:22:49;;;;;;;7.40;5.40;;;;;;;1.38;72.39;100249.25;1756107;81;21172;-67
2020/12/27 00:25:17;;;;;;;6.53;5.00;;;;;;;1.39;72.50;100253.53;1760299;81;21180;-70
2020/12/27 00:27:45;;;;;;;6.08;4.87;;;;;;;1.38;72.47;100268.30;1760768;81;21148;-66
2020/12/27 00:30:13;;;;;;;8.33;5.10;;;;;;;1.35;72.58;100260.69;1748614;81;21705;-69
2020/12/27 00:32:40;;;;;;;8.38;5.70;;;;;;;1.29;72.73;100264.39;1744381;82;21174;-69
2020/12/27 00:35:08;;;;;;;9.23;5.78;;;;;;;1.27;72.89;100267.70;1718271;82;21158;-68
2020/12/27 00:37:35;;;;;;;8.80;5.87;;;;;;;1.28;72.97;100268.03;1734299;82;21611;-67
2020/12/27 00:40:03;;;;;;;10.05;5.90;;;;;;;1.30;73.03;100267.84;1737875;82;21123;-67
2020/12/27 00:42:30;;;;;;;6.10;5.50;;;;;;;1.31;73.08;100269.49;1737158;82;21280;-70
2020/12/27 00:45:00;;;;;;;6.08;5.03;;;;;;;1.35;73.05;100269.96;1753358;81;21085;-68
2020/12/27 00:47:27;;;;;;;8.68;6.00;;;;;;;1.37;73.01;100272.77;1761177;81;21057;-67
2020/12/27 00:49:55;;;;;;;8.18;5.28;;;;;;;1.39;73.00;100272.08;1761006;81;21160;-66
2020/12/27 00:52:22;;;;;;;7.17;5.85;;;;;;;1.40;72.98;100268.93;1760134;81;21006;-66
2020/12/27 00:54:50;;;;;;;8.20;6.37;;;;;;;1.39;72.98;100263.33;1761142;81;21135;-66
2020/12/27 00:57:19;;;;;;;6.62;5.92;;;;;;;1.41;73.03;100271.41;1760877;81;21175;-73
2020/12/27 00:59:47;;;;;;;6.45;5.10;;;;;;;1.40;72.96;100265.78;1760845;81;21192;-66
2020/12/27 01:02:18;;;;;;;10.10;7.05;;;;;;;1.40;72.97;100267.11;1760974;81;21180;-65
2020/12/27 01:04:46;;;;;;;7.60;5.28;;;;;;;1.41;73.00;100266.61;1751527;81;21115;-87
2020/12/27 01:07:15;;;;;;;11.97;6.95;;;;;;;1.42;73.02;100265.13;1745617;81;22459;-66
2020/12/27 01:09:44;;;;;;;12.00;6.72;;;;;;;1.42;73.02;100268.27;1750395;82;21172;-74
2020/12/27 01:12:12;;;;;;;6.35;5.75;;;;;;;1.42;73.03;100273.56;1743836;81;21199;-67
2020/12/27 01:14:40;;;;;;;7.25;5.85;;;;;;;1.43;73.12;100267.27;1750592;81;20993;-68
2020/12/27 01:17:10;;;;;;;7.45;5.78;;;;;;;1.45;73.08;100271.38;1750316;82;21204;-68
2020/12/27 01:19:40;;;;;;;9.43;6.33;;;;;;;1.49;73.04;100265.22;1732065;82;21348;-67
2020/12/27 01:22:07;;;;;;;5.58;4.83;;;;;;;1.48;73.06;100266.24;1737502;82;21589;-68
2020/12/27 01:24:43;;;;;;;5.08;4.47;;;;;;;1.47;73.14;100265.41;1733759;82;21000;-67
2020/12/27 01:27:11;;;;;;;7.83;6.60;;;;;;;1.45;73.14;100263.43;1737449;82;21024;-68
2020/12/27 01:29:38;;;;;;;9.50;5.65;;;;;;;1.43;73.23;100272.08;1742225;81;21156;-65
2020/12/27 01:32:08;;;;;;;7.12;4.75;;;;;;;1.42;73.25;100279.70;1753192;81;22221;-67
2020/12/27 01:34:38;;;;;;;7.45;5.72;;;;;;;1.43;73.36;100283.17;1760225;81;21211;-68
2020/12/27 01:37:06;;;;;;;10.20;6.67;;;;;;;1.42;73.33;100279.70;1747273;81;21061;-67
2020/12/27 01:39:36;;;;;;;8.08;5.92;;;;;;;1.42;73.33;100282.84;1737587;82;21143;-66
2020/12/27 01:42:04;;;;;;;7.78;5.85;;;;;;;1.42;73.46;100282.34;1737942;82;21151;-66
2020/12/27 01:44:31;;;;;;;7.65;5.33;;;;;;;1.46;73.57;100295.56;1737951;82;23597;-68
2020/12/27 01:46:59;;;;;;;6.05;5.10;;;;;;;1.50;73.40;100299.51;1735455;82;21144;-67
2020/12/27 01:49:29;;;;;;;10.13;6.75;;;;;;;1.51;73.23;100310.94;1710052;82;21183;-67
2020/12/27 01:51:57;;;;;;;7.78;6.75;;;;;;;1.53;73.31;100303.65;1710869;82;21612;-66
2020/12/27 01:54:27;;;;;;;8.08;5.87;;;;;;;1.54;73.24;100304.77;1733918;82;21144;-67
2020/12/27 01:57:16;;;;;;;6.77;4.37;;;;;;;1.60;73.23;100313.36;1848339;77;22825;-67
2020/12/27 01:59:45;;;;;;;6.40;5.33;;;;;;;1.56;73.23;100313.39;1745053;81;21043;-67
2020/12/27 02:02:15;;;;;;;5.12;4.62;;;;;;;1.57;73.23;100307.59;1760188;80;22317;-67
2020/12/27 02:04:54;;;;;;;5.80;5.22;;;;;;;1.57;73.23;100305.77;1791728;80;20995;-69
2020/12/27 02:07:27;;;;;;;6.95;5.65;;;;;;;1.57;73.26;100317.70;1789616;80;20960;-67
2020/12/27 02:09:58;;;;;;;7.22;6.35;;;;;;;1.57;73.27;100318.20;1792232;80;21551;-67
2020/12/27 02:12:27;;;;;;;6.83;5.42;;;;;;;1.58;73.35;100324.63;1789869;80;21129;-68
2020/12/27 02:14:55;;;;;;;9.93;7.37;;;;;;;1.61;73.28;100331.41;1793809;80;21219;-66
2020/12/27 02:17:25;;;;;;;6.58;5.92;;;;;;;1.62;73.26;100325.95;1772439;80;21055;-67
2020/12/27 02:20:05;;;;;;;9.27;7.57;;;;;;;1.68;73.28;100331.84;1827599;76;22677;-68
2020/12/27 02:22:40;;;;;;;6.75;5.42;;;;;;;1.65;73.26;100340.66;1804426;79;20983;-69
2020/12/27 02:25:28;;;;;;;5.25;4.53;;;;;;;1.66;73.18;100337.84;1817245;78;21579;-65
2020/12/27 02:27:57;;;;;;;7.67;6.25;;;;;;;1.67;73.15;100336.84;1815015;79;21046;-67
2020/12/27 02:30:25;;;;;;;6.75;5.33;;;;;;;1.68;73.05;100342.45;1817195;79;20975;-70
2020/12/27 02:32:54;;;;;;;7.12;5.22;;;;;;;1.66;72.98;100337.02;1815871;79;20960;-68
2020/12/27 02:35:22;;;;;;;7.97;5.87;;;;;;;1.64;73.07;100338.51;1785091;80;21610;-67
2020/12/27 02:37:51;;;;;;;8.35;5.78;;;;;;;1.62;73.15;100345.83;1780297;79;21456;-67
2020/12/27 02:40:19;;;;;;;7.95;5.92;;;;;;;1.63;73.25;100342.16;1811158;79;20995;-68
2020/12/27 02:43:05;;;;;;;7.30;5.80;;;;;;;1.61;73.24;100349.48;1813982;79;20999;-68
2020/12/27 02:45:34;;;;;;;9.08;6.12;;;;;;;1.58;73.27;100352.45;1816827;79;21010;-69
2020/12/27 02:48:14;;;;;;;6.97;6.23;;;;;;;1.61;73.33;100341.52;1846390;76;22736;-68
2020/12/27 02:50:47;;;;;;;6.25;5.45;;;;;;;1.56;73.41;100348.34;1784312;80;21055;-67
2020/12/27 02:53:15;;;;;;;8.40;5.33;;;;;;;1.57;73.36;100352.66;1785081;80;21383;-67
2020/12/27 02:55:43;;;;;;;7.25;5.95;;;;;;;1.54;73.26;100357.80;1784113;80;21590;-66
2020/12/27 02:58:11;;;;;;;6.37;5.78;;;;;;;1.54;73.35;100363.09;1785899;80;20987;-68
2020/12/27 03:00:40;;;;;;;6.20;5.30;;;;;;;1.55;73.34;100371.88;1785225;80;21622;-66
2020/12/27 03:03:26;;;;;;;6.17;4.58;;;;;;;1.56;73.37;100367.73;1781064;80;20968;-69
2020/12/27 03:05:55;;;;;;;5.85;5.20;;;;;;;1.58;73.24;100372.87;1780438;80;21434;-67
2020/12/27 03:08:23;;;;;;;7.05;5.67;;;;;;;1.58;73.24;100364.91;1753933;81;20979;-66
2020/12/27 03:10:55;;;;;;;6.00;5.40;;;;;;;1.55;73.24;100374.03;1752631;81;21567;-70
2020/12/27 03:13:24;;;;;;;6.67;5.35;;;;;;;1.55;73.30;100386.45;1754011;81;20976;-69
2020/12/27 03:15:52;;;;;;;8.83;5.87;;;;;;;1.55;73.29;100392.58;1770273;80;21019;-72
2020/12/27 03:18:22;;;;;;;7.92;5.92;;;;;;;1.56;73.26;100383.64;1751612;81;21216;-66
2020/12/27 03:20:59;;;;;;;6.40;5.40;;;;;;;1.58;73.28;100392.22;1752020;81;21098;-66
2020/12/27 03:23:28;;;;;;;8.95;6.28;;;;;;;1.60;73.19;100394.70;1754012;80;21610;-67
2020/12/27 03:26:08;;;;;;;11.97;7.40;;;;;;;1.63;73.17;100387.22;1846370;76;22694;-67
2020/12/27 03:28:37;;;;;;;8.35;5.95;;;;;;;1.57;73.22;100382.64;1815578;79;20959;-70
2020/12/27 03:31:06;;;;;;;9.63;6.62;;;;;;;1.58;73.26;100386.92;1794096;79;21147;-66
2020/12/27 03:33:36;;;;;;;6.83;5.85;;;;;;;1.58;73.33;100388.77;1817226;79;21011;-66
2020/12/27 03:36:05;;;;;;;8.58;5.62;;;;;;;1.59;73.36;100397.86;1816373;79;20995;-66
2020/12/27 03:38:52;;;;;;;8.05;7.15;;;;;;;1.63;73.34;100396.50;1830609;76;28404;-66
2020/12/27 03:41:24;;;;;;;7.05;6.40;;;;;;;1.64;73.31;100406.11;1814152;79;21073;-67
2020/12/27 03:44:01;;;;;;;7.37;5.30;;;;;;;1.72;73.21;100403.44;1876884;76;22711;-69
2020/12/27 03:46:36;;;;;;;5.92;4.67;;;;;;;1.68;73.02;100414.53;1833654;77;21031;-67
2020/12/27 03:49:09;;;;;;;11.03;7.90;;;;;;;1.66;73.01;100416.06;1819903;77;21198;-66
2020/12/27 03:51:51;;;;;;;7.67;6.33;;;;;;;1.66;73.05;100417.88;1818483;78;20977;-67
2020/12/27 03:54:20;;;;;;;9.20;7.28;;;;;;;1.67;73.10;100427.49;1821363;77;21066;-67
2020/12/27 03:57:13;;;;;;;6.30;5.47;;;;;;;1.70;73.21;100418.69;1846382;76;22680;-66
2020/12/27 03:59:42;;;;;;;6.58;4.03;;;;;;;1.66;73.23;100421.36;1813950;79;21086;-68
2020/12/27 04:02:12;;;;;;;6.35;5.58;;;;;;;1.68;73.21;100447.68;1812491;79;21193;-67
2020/12/27 04:04:39;;;;;;;7.33;5.83;;;;;;;1.69;73.27;100431.61;1801938;79;21050;-68
2020/12/27 04:07:08;;;;;;;7.12;6.33;;;;;;;1.71;73.33;100430.95;1804753;79;20960;-68
2020/12/27 04:09:43;;;;;;;7.95;4.72;;;;;;;1.72;73.35;100430.45;1784243;80;20982;-68
2020/12/27 04:12:13;;;;;;;10.80;5.87;;;;;;;1.74;73.32;100445.66;1785215;80;21615;-66
2020/12/27 04:14:42;;;;;;;8.68;6.47;;;;;;;1.78;73.32;100440.83;1803908;79;21348;-66
2020/12/27 04:17:10;;;;;;;8.43;6.15;;;;;;;1.80;73.26;100443.65;1785160;79;21135;-66
2020/12/27 04:19:38;;;;;;;9.85;6.95;;;;;;;1.84;73.23;100446.77;1785300;80;20987;-66
2020/12/27 04:22:10;;;;;;;8.55;6.25;;;;;;;1.87;73.15;100453.07;1784659;80;21635;-68
2020/12/27 04:24:40;;;;;;;8.93;4.78;;;;;;;1.90;73.09;100454.86;1784488;79;21145;-72
2020/12/27 04:27:09;;;;;;;9.88;7.10;;;;;;;1.91;72.94;100447.24;1755441;80;21276;-67
2020/12/27 04:29:37;;;;;;;8.00;5.87;;;;;;;1.91;72.89;100445.91;1798748;79;21610;-69
2020/12/27 04:32:05;;;;;;;8.00;6.30;;;;;;;1.93;72.88;100445.72;1795555;79;21611;-68
2020/12/27 04:34:45;;;;;;;8.23;5.63;;;;;;;1.96;72.83;100446.72;1883416;76;22685;-66
2020/12/27 04:37:15;;;;;;;11.03;6.40;;;;;;;1.91;72.65;100461.83;1796786;79;20983;-67
2020/12/27 04:39:44;;;;;;;12.55;6.65;;;;;;;1.90;72.77;100460.67;1829854;77;21370;-67
2020/12/27 04:42:12;;;;;;;7.75;6.47;;;;;;;1.92;72.82;100466.64;1820959;78;21624;-67
2020/12/27 04:44:42;;;;;;;8.03;7.22;;;;;;;1.95;72.79;100461.80;1819045;77;21070;-66
2020/12/27 04:47:12;;;;;;;8.53;7.25;;;;;;;1.99;72.77;100460.94;1819945;78;21541;-67
2020/12/27 04:49:43;;;;;;;9.83;6.35;;;;;;;2.02;72.73;100461.41;1782617;80;21031;-66
2020/12/27 04:52:12;;;;;;;6.80;6.05;;;;;;;2.06;72.65;100465.88;1789273;78;22356;-68
2020/12/27 04:55:00;;;;;;;7.87;6.42;;;;;;;2.06;72.37;100468.54;1799046;78;21010;-68
2020/12/27 04:57:29;;;;;;;9.43;6.65;;;;;;;2.05;72.39;100478.82;1813992;78;20982;-67
2020/12/27 04:59:57;;;;;;;10.35;6.95;;;;;;;2.04;72.47;100485.12;1818419;78;21170;-66
2020/12/27 05:02:27;;;;;;;8.98;6.25;;;;;;;2.04;72.55;100483.30;1805890;79;21149;-67
2020/12/27 05:04:56;;;;;;;10.78;7.33;;;;;;;2.08;72.54;100485.09;1809539;79;21365;-67
2020/12/27 05:07:27;;;;;;;6.08;5.50;;;;;;;2.11;72.50;100490.06;1811246;78;21169;-67
2020/12/27 05:10:23;;;;;;;7.63;6.73;;;;;;;2.16;72.34;100482.38;1889438;76;22620;-67
2020/12/27 05:12:55;;;;;;;7.35;5.83;;;;;;;2.13;72.32;100488.05;1856818;77;20988;-69
2020/12/27 05:15:24;;;;;;;9.00;6.08;;;;;;;2.14;72.22;100484.39;1815103;78;21188;-66
2020/12/27 05:17:54;;;;;;;9.40;5.90;;;;;;;2.16;72.23;100487.68;1768802;80;20980;-67
2020/12/27 05:20:23;;;;;;;6.20;5.22;;;;;;;2.18;72.17;100496.30;1760109;80;20983;-66
2020/12/27 05:23:02;;;;;;;11.55;5.47;;;;;;;2.17;72.10;100494.65;1773784;79;20991;-78
2020/12/27 05:25:33;;;;;;;5.67;5.08;;;;;;;2.17;72.05;100500.78;1803837;79;20991;-70
2020/12/27 05:28:16;;;;;;;9.63;5.27;;;;;;;2.23;72.01;100495.28;1847218;75;22673;-67
2020/12/27 05:31:13;;;;;;;8.73;5.35;;;;;;;2.16;71.95;100503.60;1817338;79;21568;-69
2020/12/27 05:33:49;;;;;;;8.58;5.90;;;;;;;2.13;72.01;100507.45;1783059;79;21448;-67
2020/12/27 05:36:36;;;;;;;10.93;7.58;;;;;;;2.15;72.13;100512.59;1785895;79;21002;-69
2020/12/27 05:39:14;;;;;;;10.10;5.50;;;;;;;2.24;72.10;100522.15;1847211;76;22674;-69
2020/12/27 05:41:44;;;;;;;8.83;5.75;;;;;;;2.21;72.07;100527.78;1730381;79;20932;-67
2020/12/27 05:44:17;;;;;;;8.23;6.28;;;;;;;2.21;71.98;100533.09;1811711;79;21378;-71
2020/12/27 05:46:45;;;;;;;7.70;5.62;;;;;;;2.21;71.91;100534.42;1785244;79;21093;-67
2020/12/27 05:49:15;;;;;;;8.23;5.85;;;;;;;2.20;71.85;100539.43;1753654;81;20990;-67
2020/12/27 05:51:55;;;;;;;10.00;7.80;;;;;;;2.21;71.87;100540.26;1701098;81;21042;-66
2020/12/27 05:54:35;;;;;;;9.23;6.72;;;;;;;2.23;71.89;100547.03;1768432;80;20951;-66
2020/12/27 05:57:05;;;;;;;8.28;6.12;;;;;;;2.26;71.87;100548.49;1727073;79;21303;-66
2020/12/27 05:59:35;;;;;;;5.37;4.58;;;;;;;2.25;71.73;100553.00;1711957;83;20984;-68
2020/12/27 06:02:08;;;;;;;7.50;5.80;;;;;;;2.26;71.61;100552.47;1694731;84;21017;-67
2020/12/27 06:05:16;;;;;;;9.53;5.87;;;;;;;2.27;71.61;100556.29;1614792;85;21208;-67
2020/12/27 06:07:46;;;;;;;7.05;5.20;;;;;;;2.27;71.60;100562.92;1660140;85;21203;-67
2020/12/27 06:10:22;;;;;;;7.33;5.78;;;;;;;2.25;71.48;100559.63;1685013;85;21704;-66
2020/12/27 06:13:20;;;;;;;7.87;5.60;;;;;;;2.24;71.41;100566.44;1683967;85;21198;-68
2020/12/27 06:15:59;;;;;;;8.10;6.78;;;;;;;2.22;71.46;100571.08;1681679;85;21218;-66
2020/12/27 06:18:44;;;;;;;10.37;5.57;;;;;;;2.27;71.50;100579.34;1846052;76;22767;-67
2020/12/27 06:21:18;;;;;;;7.55;6.15;;;;;;;2.22;71.43;100581.20;1786589;79;21031;-67
2020/12/27 06:23:48;;;;;;;11.83;6.90;;;;;;;2.22;71.52;100583.02;1807667;79;21158;-68
2020/12/27 06:26:17;;;;;;;13.28;7.53;;;;;;;2.19;71.63;100588.19;1786297;79;20996;-67
2020/12/27 06:28:57;;;;;;;10.57;6.83;;;;;;;2.25;71.78;100594.14;1809960;77;23303;-68
2020/12/27 06:31:27;;;;;;;8.80;6.12;;;;;;;2.27;71.81;100604.06;1753188;79;21010;-68
2020/12/27 06:34:02;;;;;;;7.20;5.47;;;;;;;2.32;71.57;100610.17;1750621;81;22226;-66
2020/12/27 06:36:40;;;;;;;9.30;5.57;;;;;;;2.38;71.37;100613.47;1889406;76;22592;-66
2020/12/27 06:39:28;;;;;;;9.55;6.42;;;;;;;2.34;71.37;100620.13;1858420;77;21045;-67
2020/12/27 06:42:16;;;;;;;8.33;6.33;;;;;;;2.33;71.30;100616.65;1819069;78;21333;-67
2020/12/27 06:45:08;;;;;;;14.53;8.67;;;;;;;2.36;71.25;100617.61;1847262;76;22719;-67
2020/12/27 06:47:52;;;;;;;7.30;6.08;;;;;;;2.33;71.31;100622.45;1793413;79;21125;-69
2020/12/27 06:50:30;;;;;;;7.33;5.87;;;;;;;2.40;71.15;100624.23;1829590;76;22652;-69
2020/12/27 06:53:02;;;;;;;9.20;7.03;;;;;;;2.39;71.06;100631.06;1784336;80;21141;-68
2020/12/27 06:55:44;;;;;;;10.97;6.00;;;;;;;2.38;71.08;100631.55;1809720;79;21150;-68
2020/12/27 06:58:20;;;;;;;7.37;5.75;;;;;;;2.42;71.25;100641.31;1816594;79;21010;-71
2020/12/27 07:00:49;;;;;;;14.07;8.45;;;;;;;2.45;71.06;100642.28;1785753;79;22184;-67
2020/12/27 07:03:21;;;;;;;7.45;6.70;;;;;;;2.46;71.09;100646.11;1805458;79;21069;-69
2020/12/27 07:05:51;;;;;;;11.73;6.75;;;;;;;2.47;70.97;100645.11;1785019;80;21031;-66
2020/12/27 07:08:41;;;;;;;12.25;6.58;;;;;;;2.47;70.90;100654.41;1785089;80;21216;-68
2020/12/27 07:11:19;;;;;;;10.32;5.70;;;;;;;2.48;70.89;100649.92;1785835;79;21010;-71
2020/12/27 07:13:50;;;;;;;8.25;6.80;;;;;;;2.50;70.88;100656.70;1785138;80;21559;-68
2020/12/27 07:16:18;;;;;;;11.30;6.65;;;;;;;2.52;70.75;100656.04;1794250;79;21126;-71
2020/12/27 07:18:48;;;;;;;10.48;6.62;;;;;;;2.52;70.76;100646.75;1796449;79;21183;-67
2020/12/27 07:21:22;;;;;;;11.63;9.10;;;;;;;2.52;70.80;100653.87;1789917;79;21367;-73
2020/12/27 07:24:14;;;;;;;17.62;10.13;;;;;;;2.50;71.05;100654.05;1756195;79;21113;-70
2020/12/27 07:26:46;;;;;;;16.20;8.60;;;;;;;2.49;71.11;100646.27;1774202;79;21634;-67
2020/12/27 07:29:18;;;;;;;;;;;;;;;2.53;71.24;100644.92;1819403;79;21046;-67
2020/12/27 07:31:45;;;;;;;14.90;7.78;;;;;;;2.57;71.12;100648.38;1817347;79;20235;-67
2020/12/27 07:34:14;;;;;;;12.15;8.00;;;;;;;2.58;70.98;100651.36;1753040;80;21377;-65
2020/12/27 07:36:42;;;;;;;16.23;7.42;;;;;;;2.57;71.05;100648.38;1798664;79;21130;-68
2020/12/27 07:39:12;;;;;;;22.17;13.72;;;;;;;2.56;71.17;100651.20;1796534;79;21118;-67
2020/12/27 07:41:43;;;;;;;11.68;8.00;;;;;;;2.52;71.19;100649.40;1797762;79;21154;-66
2020/12/27 07:44:14;;;;;;;11.63;7.67;;;;;;;2.52;71.15;100656.53;1817249;79;21153;-66
2020/12/27 07:46:42;;;;;;;11.38;8.35;;;;;;;2.51;71.32;100661.52;1796080;79;22255;-67
2020/12/27 07:49:11;;;;;;;18.35;10.25;;;;;;;2.47;71.29;100654.41;1815547;76;21527;-69
2020/12/27 07:51:39;;;;;;;10.53;8.03;;;;;;;2.44;71.45;100660.07;1831331;78;21587;-67
2020/12/27 07:54:07;;;;;;;14.55;8.45;;;;;;;2.47;71.57;100650.42;1832213;78;21172;-66
2020/12/27 07:56:36;;;;;;;17.05;10.28;;;;;;;2.50;71.35;100650.56;1749760;80;21179;-67
2020/12/27 07:59:04;;;;;;;13.62;9.50;;;;;;;2.48;71.37;100649.92;1812552;79;21370;-67
2020/12/27 08:01:34;;;;;;;18.57;11.38;;;;;;;2.44;71.41;100655.26;1791009;80;21118;-68
2020/12/27 08:04:04;;;;;;;15.50;10.20;;;;;;;2.44;71.53;100661.89;1790527;80;21138;-69
2020/12/27 08:06:34;;;;;;;21.50;11.88;;;;;;;2.47;71.40;100662.37;1786866;80;21190;-70
2020/12/27 08:09:11;;;;;;;16.48;10.53;;;;;;;2.48;71.15;100668.02;1762015;80;21085;-68
2020/12/27 08:11:41;;;;;;;19.55;10.18;;;;;;;2.47;71.11;100668.17;1812212;79;21359;-67
2020/12/27 08:14:11;;;;;;;19.50;11.60;;;;;;;2.50;71.21;100669.14;1792832;80;21001;-67
2020/12/27 08:16:41;;;;;;;23.12;14.73;;;;;;;2.57;71.25;100683.39;1794858;79;21138;-67
2020/12/27 08:19:15;;;;;;;17.98;12.37;;;;;;;2.61;71.12;100690.01;1759251;81;21099;-67
2020/12/27 08:21:44;;;;;;;16.75;12.07;;;;;;;2.64;70.86;100690.98;1772501;80;21607;-65
2020/12/27 08:24:16;;;;;;;24.15;12.15;;;;;;;2.62;70.69;100702.30;1781594;77;21312;-67
2020/12/27 08:26:48;;;;;;;22.00;11.85;;;;;;;2.58;70.83;100700.98;1802264;79;21141;-70
2020/12/27 08:29:21;;;;;;;24.25;12.30;;;;;;;2.62;70.77;100704.95;1780040;80;21604;-67
2020/12/27 08:31:53;;;;;;;20.75;12.55;;;;;;;2.60;70.87;100710.42;1796313;79;21027;-70
2020/12/27 08:34:25;;;;;;;18.85;10.85;;;;;;;2.63;71.00;100710.59;1808948;79;21173;-68
2020/12/27 08:36:56;;;;;;;18.80;12.33;;;;;;;2.67;70.91;100719.03;1808354;79;21372;-68
2020/12/27 08:39:40;;;;;;;16.97;11.45;;;;;;;2.64;71.01;100718.86;1790289;77;21164;-66
2020/12/27 08:42:42;;;;;;;19.00;12.15;;;;;;;2.61;71.09;100721.87;1793724;79;21567;-67
2020/12/27 08:45:16;;;;;;;23.05;14.38;;;;;;;2.60;71.23;100720.22;1780539;79;21149;-68
2020/12/27 08:47:58;;;;;;;22.07;12.85;;;;;;;2.62;71.22;100707.61;1810693;79;21123;-68
2020/12/27 08:50:27;;;;;;;27.48;13.98;;;;;;;2.63;71.32;100711.92;1783636;79;21149;-68
2020/12/27 08:53:00;;;;;;;21.30;10.98;;;;;;;2.69;71.46;100711.70;1757927;79;21161;-66
2020/12/27 08:55:29;;;;;;;13.48;9.83;;;;;;;2.75;71.42;100712.34;1817027;79;28330;-68
2020/12/27 08:58:00;;;;;;;23.20;12.20;;;;;;;2.82;71.38;100706.17;1793548;79;21117;-68
2020/12/27 09:00:34;;;;;;;15.48;10.32;;;;;;;2.88;71.25;100699.31;1799941;79;21003;-69
2020/12/27 09:03:04;;;;;;;16.17;10.00;;;;;;;2.94;70.72;100697.29;1790824;79;21352;-66
2020/12/27 09:05:35;;;;;;;18.20;13.03;;;;;;;2.94;70.47;100699.45;1814160;79;21130;-67
2020/12/27 09:08:21;;;;;;;17.70;9.98;;;;;;;2.94;70.41;100711.91;1816828;79;21133;-67
2020/12/27 09:10:51;;;;;;;16.55;9.85;;;;;;;2.95;69.90;100706.42;1797067;79;21586;-67
2020/12/27 09:13:18;;;;;;;17.00;10.78;;;;;;;2.96;69.43;100708.08;1715884;79;21142;-65
2020/12/27 09:15:48;;;;;;;17.23;10.40;;;;;;;3.00;69.44;100708.05;1816529;79;21249;-66
2020/12/27 09:18:30;;;;;;;15.80;9.05;;;;;;;3.01;69.04;100708.89;1795327;79;21058;-67
2020/12/27 09:21:04;;;;;;;20.12;12.78;;;;;;;2.96;69.02;100709.41;1759010;80;21042;-69
2020/12/27 09:23:32;;;;;;;18.75;11.70;;;;;;;2.92;68.81;100705.45;1784246;80;21149;-67
2020/12/27 09:26:09;;;;;;;19.62;13.32;;;;;;;2.92;69.35;100708.61;1784314;80;21129;-70
2020/12/27 09:28:39;;;;;;;17.12;9.25;;;;;;;2.97;69.40;100701.74;1784359;80;21371;-65
2020/12/27 09:31:12;;;;;;;21.48;13.45;;;;;;;2.99;69.41;100693.11;1784421;79;21209;-67
2020/12/27 09:33:47;;;;;;;17.12;12.55;;;;;;;2.97;68.63;100688.45;1801035;77;21011;-68
2020/12/27 09:36:15;;;;;;;14.10;9.63;;;;;;;2.94;69.03;100692.80;1784982;80;21403;-67
2020/12/27 09:38:46;;;;;;;10.63;6.25;;;;;;;2.96;68.55;100692.64;1809677;79;21137;-67
2020/12/27 09:41:20;;;;;;;13.13;9.08;;;;;;;3.03;68.20;100692.24;1808862;79;21334;-65
2020/12/27 09:43:58;;;;;;;15.00;9.18;;;;;;;3.09;67.92;100696.86;1800875;77;21555;-68
2020/12/27 09:46:46;;;;;;;11.15;6.08;;;;;;;3.10;67.80;100702.51;1813607;79;21157;-68
2020/12/27 09:49:26;;;;;;;5.25;3.70;;;;;;;3.14;66.18;100703.80;1790347;79;21158;-68
2020/12/27 09:52:11;;;;;;;2.87;2.30;;;;;;;3.15;64.69;100710.78;1786654;79;21182;-83
2020/12/27 09:54:43;;;;;;;3.58;2.35;;;;;;;3.08;62.09;100712.47;1745620;81;22334;-65
2020/12/27 09:57:18;;;;;;;3.12;2.90;;;;;;;3.03;62.03;100713.00;1798974;79;21590;-66
2020/12/27 09:59:47;;;;;;;3.30;2.58;;;;;;;3.03;61.90;100714.33;1773928;80;21187;-67
2020/12/27 10:02:17;;;;;;;4.22;3.58;;;;;;;3.04;61.91;100711.18;1803556;79;21161;-67
2020/12/27 10:04:45;;;;;;;4.40;3.72;;;;;;;3.05;62.07;100709.69;1756457;81;21150;-74
2020/12/27 10:07:14;;;;;;;9.20;4.42;;;;;;;3.09;62.33;100715.47;1780080;79;21370;-68
2020/12/27 10:09:41;;;;;;;6.70;3.92;;;;;;;3.08;61.45;100705.83;1761065;81;21561;-65
2020/12/27 10:12:10;;;;;;;4.30;3.62;;;;;;;3.03;61.54;100694.91;1768611;80;21562;-66
2020/12/27 10:14:37;;;;;;;3.85;3.10;;;;;;;3.04;61.38;100691.25;1797696;79;20991;-69
2020/12/27 10:17:06;;;;;;;7.53;4.15;;;;;;;3.06;61.62;100697.23;1759527;81;21133;-68
2020/12/27 10:19:34;;;;;;;4.62;3.20;;;;;;;3.10;61.25;100704.34;1811959;79;21179;-66
2020/12/27 10:22:02;;;;;;;7.65;4.30;;;;;;;3.08;61.50;100698.69;1737474;81;21147;-70
2020/12/27 10:24:34;;;;;;;5.53;3.92;;;;;;;3.11;61.75;100692.70;1759856;81;21184;-68
2020/12/27 10:27:05;;;;;;;8.63;5.00;;;;;;;3.09;61.69;100699.52;1739713;80;21123;-72
2020/12/27 10:29:34;;;;;;;7.53;3.58;;;;;;;3.04;61.15;100696.06;1768582;80;21180;-69
2020/12/27 10:32:04;;;;;;;5.83;4.12;;;;;;;3.02;60.94;100705.23;1779982;80;21529;-66
2020/12/27 10:34:34;;;;;;;9.03;4.97;;;;;;;3.02;61.19;100702.58;1792163;79;21639;-69
2020/12/27 10:37:03;;;;;;;9.95;5.30;;;;;;;3.03;60.74;100701.05;1757497;81;21176;-69
2020/12/27 10:39:33;;;;;;;6.60;4.45;;;;;;;2.95;60.62;100698.95;1744640;81;21626;-68
2020/12/27 10:42:01;;;;;;;8.33;4.30;;;;;;;2.87;61.00;100694.53;1785117;79;21157;-68
2020/12/27 10:44:29;;;;;;;5.08;3.92;;;;;;;2.85;61.23;100695.19;1792561;80;21364;-69
2020/12/27 10:46:58;;;;;;;6.53;3.80;;;;;;;2.87;61.23;100695.86;1808142;78;21161;-73
2020/12/27 10:49:27;;;;;;;7.83;4.62;;;;;;;2.90;60.98;100698.64;1757772;80;21578;-68
2020/12/27 10:51:55;;;;;;;9.75;4.67;;;;;;;2.86;61.12;100697.34;1761933;81;21200;-68
2020/12/27 10:54:22;;;;;;;7.37;4.45;;;;;;;2.84;61.47;100694.86;1761817;81;21214;-73
2020/12/27 10:56:50;;;;;;;3.50;2.85;;;;;;;2.86;61.26;100688.88;1756961;81;21574;-68
2020/12/27 10:59:18;;;;;;;5.85;3.40;;;;;;;2.88;60.96;100684.70;1809151;79;21118;-65
2020/12/27 11:01:48;;;;;;;6.65;3.87;;;;;;;2.81;60.92;100682.43;1799449;79;21593;-65
2020/12/27 11:04:16;;;;;;;5.08;3.83;;;;;;;2.79;61.16;100683.09;1785279;80;21188;-66
2020/12/27 11:06:44;;;;;;;4.37;3.05;;;;;;;2.77;61.01;100678.48;1787046;80;21157;-68
2020/12/27 11:09:13;;;;;;;4.92;3.17;;;;;;;2.73;60.87;100676.68;1804300;79;21204;-68
2020/12/27 11:11:41;;;;;;;2.67;2.30;;;;;;;2.75;61.11;100681.30;1815814;79;21118;-68
2020/12/27 11:14:08;;;;;;;8.13;3.22;;;;;;;2.81;61.06;100679.28;1816525;79;21102;-69
2020/12/27 11:16:36;;;;;;;5.03;3.40;;;;;;;2.82;60.99;100673.47;1816319;79;21153;-68
2020/12/27 11:19:04;;;;;;;5.70;4.28;;;;;;;2.84;61.33;100685.56;1802101;79;21178;-67
2020/12/27 11:21:32;;;;;;;4.45;3.20;;;;;;;2.87;61.42;100674.59;1784188;80;22166;-67
2020/12/27 11:24:00;;;;;;;3.80;3.40;;;;;;;2.89;61.14;100681.88;1784048;80;21031;-68
2020/12/27 11:26:28;;;;;;;3.80;3.10;;;;;;;2.92;60.87;100680.72;1755715;80;21161;-67
2020/12/27 11:28:56;;;;;;;6.80;4.22;;;;;;;2.91;60.49;100683.87;1789627;79;21090;-68
2020/12/27 11:31:24;;;;;;;5.12;3.72;;;;;;;2.87;60.68;100683.06;1784041;80;21129;-67
2020/12/27 11:33:51;;;;;;;7.70;3.45;;;;;;;2.84;61.04;100688.71;1783979;80;21268;-68
2020/12/27 11:36:19;;;;;;;5.00;3.98;;;;;;;2.83;61.29;100683.90;1784058;80;21181;-67
2020/12/27 11:38:47;;;;;;;10.28;6.78;;;;;;;2.83;61.52;100686.55;1784616;80;21153;-68
2020/12/27 11:41:15;;;;;;;4.45;3.15;;;;;;;2.88;61.77;100684.70;1814923;79;21082;-66
2020/12/27 11:43:43;;;;;;;4.55;4.08;;;;;;;2.97;61.67;100686.33;1816402;79;21169;-65
2020/12/27 11:46:12;;;;;;;4.72;3.72;;;;;;;2.99;61.27;100681.64;1816317;79;21353;-68
2020/12/27 11:48:40;;;;;;;9.98;4.20;;;;;;;2.97;61.26;100678.36;1801603;79;21200;-65
2020/12/27 11:51:08;;;;;;;4.25;3.12;;;;;;;2.99;61.75;100682.48;1756769;79;21105;-72